createdAt,value
2018-12-24T00:01:05.226Z,95.02
2018-12-24T00:03:33.373Z,94.00
2018-12-24T00:06:01.638Z,95.35
2018-12-24T00:08:29.822Z,96.38
2018-12-24T00:10:57.990Z,94.16
2018-12-24T00:13:26.131Z,94.58
2018-12-24T00:15:54.256Z,93.79
2018-12-24T00:18:22.430Z,95.79
2018-12-24T00:20:50.583Z,95.75
2018-12-24T00:23:18.778Z,94.58
2018-12-24T00:25:46.999Z,94.44
2018-12-24T00:28:15.105Z,94.61
2018-12-24T00:33:51.956Z,94.34
2018-12-24T00:36:20.661Z,95.20
2018-12-24T00:38:49.360Z,95.15
2018-12-24T00:41:18.048Z,95.79
2018-12-24T00:43:46.799Z,94.98
2018-12-24T00:46:15.493Z,95.77
2018-12-24T00:51:19.150Z,95.02
2018-12-24T00:54:07.169Z,95.25
2018-12-24T00:56:35.856Z,95.26
2018-12-24T00:59:23.948Z,94.35
2018-12-24T01:01:52.642Z,94.73
2018-12-24T01:04:40.552Z,93.91
2018-12-24T01:07:09.233Z,94.20
2018-12-24T01:12:32.541Z,93.41
2018-12-24T01:15:01.247Z,92.78
2018-12-24T01:17:29.923Z,94.28
2018-12-24T01:19:58.605Z,94.69
2018-12-24T01:22:46.490Z,93.07
2018-12-24T01:25:15.508Z,93.21
2018-12-24T01:30:18.750Z,92.61
2018-12-24T01:32:47.453Z,94.36
2018-12-24T01:35:16.151Z,94.16
2018-12-24T01:38:04.790Z,93.32
2018-12-24T01:40:33.481Z,93.04
2018-12-24T01:43:02.272Z,94.92
2018-12-24T01:45:30.957Z,94.04
2018-12-24T01:47:59.689Z,93.71
2018-12-24T01:50:28.467Z,93.70
2018-12-24T01:52:57.148Z,94.76
2018-12-24T01:55:26.263Z,94.24
2018-12-24T01:57:54.992Z,92.45
2018-12-24T02:00:24.053Z,92.87
2018-12-24T02:02:53.078Z,91.48
2018-12-24T02:05:21.771Z,94.36
2018-12-24T02:07:50.454Z,94.89
2018-12-24T02:10:19.146Z,94.25
2018-12-24T02:12:48.002Z,92.16
2018-12-24T02:15:16.987Z,91.82
2018-12-24T02:17:46.296Z,93.94
2018-12-24T02:20:14.965Z,92.15
2018-12-24T02:22:43.648Z,91.83
2018-12-24T02:25:12.369Z,92.02
2018-12-24T02:27:41.363Z,94.09
2018-12-24T02:30:10.395Z,91.13
2018-12-24T02:32:39.167Z,91.21
2018-12-24T02:35:07.922Z,89.88
2018-12-24T02:37:36.635Z,91.56
2018-12-24T02:40:05.558Z,92.24
2018-12-24T02:42:34.279Z,93.17
2018-12-24T02:45:03.032Z,91.29
2018-12-24T02:47:31.732Z,91.29
2018-12-24T02:50:00.482Z,90.20
2018-12-24T02:52:29.943Z,90.29
2018-12-24T02:54:59.008Z,91.63
2018-12-24T02:57:27.691Z,89.22
2018-12-24T02:59:56.384Z,90.46
2018-12-24T03:02:25.061Z,92.39
2018-12-24T03:04:54.271Z,91.72
2018-12-24T03:07:22.943Z,91.97
2018-12-24T03:09:51.627Z,93.11
2018-12-24T03:12:20.405Z,92.95
2018-12-24T03:14:49.088Z,91.39
2018-12-24T03:17:18.471Z,92.33
2018-12-24T03:19:47.164Z,89.97
2018-12-24T03:22:16.124Z,91.20
2018-12-24T03:24:44.886Z,92.88
2018-12-24T03:27:13.640Z,92.10
2018-12-24T03:29:42.689Z,90.31
2018-12-24T03:32:11.442Z,89.36
2018-12-24T03:34:40.459Z,89.16
2018-12-24T03:37:09.146Z,89.11
2018-12-24T03:39:37.849Z,89.76
2018-12-24T03:42:07.205Z,89.57
2018-12-24T03:44:35.884Z,91.19
2018-12-24T03:47:04.580Z,92.01
2018-12-24T03:49:33.248Z,90.08
2018-12-24T03:52:01.930Z,89.15
2018-12-24T03:54:31.573Z,90.21
2018-12-24T03:57:00.256Z,88.54
2018-12-24T03:59:28.937Z,91.42
2018-12-24T04:01:57.627Z,90.28
2018-12-24T04:04:26.348Z,90.21
2018-12-24T04:06:55.412Z,90.94
2018-12-24T04:09:24.084Z,90.93
2018-12-24T04:11:52.783Z,91.22
2018-12-24T04:14:21.795Z,91.34
2018-12-24T04:16:50.477Z,88.76
2018-12-24T04:19:19.458Z,90.40
2018-12-24T04:21:48.144Z,90.29
2018-12-24T04:24:17.137Z,91.15
2018-12-24T04:26:46.132Z,91.03
2018-12-24T04:29:14.879Z,88.89
2018-12-24T04:31:43.914Z,86.97
2018-12-24T04:34:12.896Z,88.87
2018-12-24T04:36:41.568Z,89.49
2018-12-24T04:39:10.248Z,89.74
2018-12-24T04:41:38.923Z,90.21
2018-12-24T04:44:08.055Z,88.58
2018-12-24T04:46:37.126Z,90.88
2018-12-24T04:49:05.883Z,90.19
2018-12-24T04:51:35.261Z,91.61
2018-12-24T04:54:04.057Z,90.92
2018-12-24T04:56:33.009Z,89.76
2018-12-24T04:59:01.699Z,92.34
2018-12-24T05:01:30.389Z,91.73
2018-12-24T05:03:59.157Z,91.75
2018-12-24T05:06:27.851Z,91.83
2018-12-24T05:08:56.849Z,90.52
2018-12-24T05:11:25.843Z,91.02
2018-12-24T05:13:54.569Z,91.33
2018-12-24T05:16:23.538Z,92.08
2018-12-24T05:18:52.533Z,90.74
2018-12-24T05:21:21.601Z,89.94
2018-12-24T05:23:50.292Z,90.13
2018-12-24T05:26:19.055Z,90.06
2018-12-24T05:28:48.093Z,89.92
2018-12-24T05:31:16.784Z,90.00
2018-12-24T05:33:45.881Z,89.90
2018-12-24T05:36:14.699Z,89.72
2018-12-24T05:38:43.393Z,91.28
2018-12-24T05:41:12.094Z,90.75
2018-12-24T05:43:49.273Z,90.64
2018-12-24T05:46:11.523Z,90.86
2018-12-24T05:48:40.207Z,90.80
2018-12-24T05:51:09.207Z,89.94
2018-12-24T05:53:37.894Z,90.34
2018-12-24T05:56:06.710Z,90.41
2018-12-24T05:58:36.183Z,90.91
2018-12-24T06:01:04.940Z,91.26
2018-12-24T06:03:33.634Z,91.23
2018-12-24T06:06:02.407Z,90.73
2018-12-24T06:08:31.239Z,91.24
2018-12-24T06:11:00.225Z,91.53
2018-12-24T06:13:28.945Z,91.26
2018-12-24T06:15:57.709Z,91.52
2018-12-24T06:18:27.097Z,89.78
2018-12-24T06:20:55.787Z,89.05
2018-12-24T06:23:24.543Z,89.07
2018-12-24T06:25:53.381Z,88.93
2018-12-24T06:28:22.064Z,90.80
2018-12-24T06:30:50.767Z,88.84
2018-12-24T06:33:19.456Z,88.72
2018-12-24T06:35:48.717Z,87.76
2018-12-24T06:38:17.403Z,88.28
2018-12-24T06:40:46.169Z,88.98
2018-12-24T06:43:14.849Z,89.08
2018-12-24T06:45:43.531Z,89.36
2018-12-24T06:48:12.650Z,87.59
2018-12-24T06:50:41.393Z,88.52
2018-12-24T06:53:10.248Z,89.04
2018-12-24T06:55:38.958Z,89.22
2018-12-24T06:58:07.745Z,90.35
2018-12-24T07:00:36.892Z,89.58
2018-12-24T07:03:05.983Z,89.47
2018-12-24T07:05:34.663Z,89.59
2018-12-24T07:08:03.706Z,90.29
2018-12-24T07:10:32.997Z,90.72
2018-12-24T07:13:01.680Z,91.36
2018-12-24T07:15:30.468Z,90.44
2018-12-24T07:17:59.441Z,90.12
2018-12-24T07:20:28.154Z,90.13
2018-12-24T07:22:56.876Z,90.15
2018-12-24T07:25:25.541Z,89.79
2018-12-24T07:27:54.229Z,89.66
2018-12-24T07:30:22.925Z,89.54
2018-12-24T07:32:51.661Z,89.61
2018-12-24T07:35:20.648Z,90.64
2018-12-24T07:37:49.772Z,89.77
2018-12-24T07:40:18.455Z,90.96
2018-12-24T07:42:47.623Z,90.83
2018-12-24T07:45:16.305Z,91.02
2018-12-24T07:47:44.995Z,91.66
2018-12-24T07:50:13.777Z,92.00
2018-12-24T07:52:42.453Z,91.76
2018-12-24T07:55:12.173Z,92.02
2018-12-24T07:57:40.851Z,92.30
2018-12-24T08:00:09.602Z,92.32
2018-12-24T08:02:38.381Z,92.27
2018-12-24T08:05:07.142Z,92.24
2018-12-24T08:07:35.821Z,91.84
2018-12-24T08:10:04.769Z,91.59
2018-12-24T08:12:33.548Z,91.77
2018-12-24T08:15:02.215Z,91.79
2018-12-24T08:17:31.009Z,91.27
2018-12-24T08:19:59.675Z,91.28
2018-12-24T08:22:28.344Z,90.80
2018-12-24T08:24:57.037Z,91.72
2018-12-24T08:27:25.724Z,91.54
2018-12-24T08:29:54.420Z,91.93
2018-12-24T08:32:23.113Z,91.78
2018-12-24T08:34:52.115Z,91.24
2018-12-24T08:37:40.256Z,92.24
2018-12-24T08:40:28.254Z,92.58
2018-12-24T08:42:57.054Z,92.04
2018-12-24T08:45:45.275Z,92.56
2018-12-24T08:48:13.961Z,92.97
2018-12-24T08:51:22.579Z,93.30
2018-12-24T08:57:19.012Z,92.20
2018-12-24T08:59:47.944Z,91.70
2018-12-24T09:05:29.406Z,91.05
2018-12-24T09:10:33.043Z,91.25
2018-12-24T09:16:14.287Z,91.07
2018-12-24T09:18:43.082Z,90.88
2018-12-24T09:21:31.162Z,91.82
2018-12-24T09:24:00.314Z,92.26
2018-12-24T09:26:48.704Z,93.12
2018-12-24T09:29:36.693Z,93.33
2018-12-24T09:32:05.619Z,93.85
2018-12-24T09:34:34.345Z,93.78
2018-12-24T09:37:03.059Z,93.87
2018-12-24T09:39:31.752Z,93.57
2018-12-24T09:42:00.551Z,93.55
2018-12-24T09:44:48.299Z,93.40
2018-12-24T09:49:51.996Z,93.03
2018-12-24T09:53:00.756Z,92.32
2018-12-24T09:55:29.464Z,92.72
2018-12-24T09:57:58.269Z,93.47
2018-12-24T10:06:22.061Z,93.32
2018-12-24T10:08:50.748Z,93.03
2018-12-24T10:11:38.781Z,92.45
2018-12-24T10:14:26.668Z,92.47
2018-12-24T10:19:29.203Z,91.64
2018-12-24T10:21:57.908Z,90.42
2018-12-24T10:24:26.602Z,90.37
2018-12-24T10:26:55.553Z,89.68
2018-12-24T10:31:58.236Z,87.13
2018-12-24T10:34:46.255Z,85.59
2018-12-24T10:37:14.944Z,83.85
2018-12-24T10:39:43.665Z,82.68
2018-12-24T10:42:12.350Z,83.21
2018-12-24T10:50:02.664Z,81.95
2018-12-24T10:52:50.707Z,81.35
2018-12-24T10:55:38.715Z,83.32
2018-12-24T10:58:07.432Z,82.84
2018-12-24T11:00:36.130Z,81.77
2018-12-24T11:03:04.833Z,77.98
2018-12-24T11:09:06.241Z,76.70
2018-12-24T11:11:36.177Z,79.20
2018-12-24T11:14:05.025Z,79.00
2018-12-24T11:16:45.702Z,73.75
2018-12-24T11:19:33.464Z,76.30
2018-12-24T11:22:02.211Z,74.03
2018-12-24T11:24:30.915Z,76.91
2018-12-24T11:26:59.616Z,74.93
2018-12-24T11:29:28.347Z,74.02
2018-12-24T11:32:16.236Z,75.81
2018-12-24T11:34:44.946Z,73.08
2018-12-24T11:37:32.872Z,77.17
2018-12-24T11:42:35.809Z,77.21
2018-12-24T11:50:34.501Z,76.24
2018-12-24T11:55:58.611Z,78.21
2018-12-24T11:58:27.594Z,77.72
2018-12-24T12:01:15.924Z,77.65
2018-12-24T12:03:44.625Z,78.29
2018-12-24T12:06:19.641Z,76.92
2018-12-24T12:11:38.775Z,78.00
2018-12-24T12:14:26.680Z,79.39
2018-12-24T12:16:55.366Z,79.48
2018-12-24T12:24:46.223Z,79.65
2018-12-24T12:27:14.932Z,78.19
2018-12-24T12:29:43.632Z,78.09
2018-12-24T12:32:12.324Z,75.57
2018-12-24T12:37:15.540Z,77.67
2018-12-24T12:39:44.246Z,76.16
2018-12-24T12:42:12.939Z,75.44
2018-12-24T12:44:41.629Z,75.87
2018-12-24T12:47:10.633Z,75.54
2018-12-24T12:49:39.599Z,74.62
2018-12-24T12:52:08.285Z,75.58
2018-12-24T12:54:37.007Z,74.42
2018-12-24T12:57:05.703Z,74.23
2018-12-24T12:59:34.393Z,74.01
2018-12-24T13:04:57.222Z,75.09
2018-12-24T13:07:25.924Z,74.98
2018-12-24T13:09:54.637Z,75.51
2018-12-24T13:12:23.672Z,75.17
2018-12-24T13:15:11.731Z,74.99
2018-12-24T13:17:41.031Z,71.03
2018-12-24T13:20:09.725Z,72.06
2018-12-24T13:25:32.033Z,71.36
2018-12-24T13:28:00.742Z,73.04
2018-12-24T13:30:29.437Z,72.32
2018-12-24T13:32:58.146Z,74.40
2018-12-24T13:43:10.691Z,76.03
2018-12-24T13:45:39.375Z,76.38
2018-12-24T13:50:41.997Z,74.97
2018-12-24T13:53:10.687Z,75.25
2018-12-24T13:55:39.446Z,77.80
2018-12-24T13:58:08.129Z,75.89
2018-12-24T14:00:37.098Z,77.61
2018-12-24T14:03:05.834Z,77.29
2018-12-24T14:05:34.775Z,75.94
2018-12-24T14:08:03.462Z,76.01
2018-12-24T14:13:25.810Z,75.28
2018-12-24T14:15:54.495Z,76.59
2018-12-24T14:18:23.201Z,76.53
2018-12-24T14:20:51.926Z,76.78
2018-12-24T14:23:20.617Z,76.69
2018-12-24T14:25:49.327Z,75.35
2018-12-24T14:28:18.017Z,74.90
2018-12-24T14:30:46.699Z,75.66
2018-12-24T14:35:49.658Z,76.62
2018-12-24T14:38:18.346Z,75.23
2018-12-24T14:40:47.124Z,72.43
2018-12-24T14:43:15.892Z,74.33
2018-12-24T14:45:44.690Z,75.26
2018-12-24T14:48:13.657Z,77.84
2018-12-24T14:50:47.200Z,79.80
2018-12-24T14:53:12.728Z,78.07
2018-12-24T14:55:41.744Z,77.32
2018-12-24T14:58:10.497Z,78.38
2018-12-24T15:00:39.255Z,78.42
2018-12-24T15:03:08.292Z,77.48
2018-12-24T15:05:36.979Z,77.21
2018-12-24T15:08:05.656Z,77.93
2018-12-24T15:10:34.436Z,77.35
2018-12-24T15:13:03.120Z,77.88
2018-12-24T15:15:31.910Z,77.71
2018-12-24T15:18:01.189Z,78.60
2018-12-24T15:20:30.260Z,79.04
2018-12-24T15:22:59.032Z,79.90
2018-12-24T15:25:27.831Z,79.80
2018-12-24T15:27:56.511Z,81.29
2018-12-24T15:30:25.195Z,81.85
2018-12-24T15:32:54.251Z,83.13
2018-12-24T15:35:23.226Z,83.34
2018-12-24T15:37:51.941Z,83.73
2018-12-24T15:40:20.896Z,83.32
2018-12-24T15:42:49.579Z,83.45
2018-12-24T15:45:18.342Z,84.10
2018-12-24T15:47:47.094Z,84.47
2018-12-24T15:50:15.772Z,85.24
2018-12-24T15:52:45.550Z,85.07
2018-12-24T15:55:14.244Z,85.72
2018-12-24T15:57:42.924Z,85.63
2018-12-24T16:00:11.645Z,85.81
2018-12-24T16:02:40.327Z,85.47
2018-12-24T16:05:14.210Z,85.93
2018-12-24T16:07:43.281Z,86.79
2018-12-24T16:10:13.515Z,88.20
2018-12-24T16:12:43.097Z,88.19
2018-12-24T16:15:12.219Z,87.70
2018-12-24T16:17:40.958Z,87.46
2018-12-24T16:20:14.604Z,87.53
2018-12-24T16:22:43.436Z,87.95
2018-12-24T16:25:14.744Z,87.92
2018-12-24T16:27:45.243Z,87.70
2018-12-24T16:30:15.670Z,88.04
2018-12-24T16:32:44.343Z,88.09
2018-12-24T16:35:14.423Z,88.36
2018-12-24T16:37:43.125Z,88.49
2018-12-24T16:40:11.910Z,89.06
2018-12-24T16:42:40.689Z,89.07
2018-12-24T16:45:09.552Z,89.13
2018-12-24T16:47:38.246Z,89.48
2018-12-24T16:50:07.992Z,89.37
2018-12-24T16:52:37.001Z,89.88
2018-12-24T16:55:05.654Z,89.61
2018-12-24T16:57:34.498Z,89.61
2018-12-24T17:00:03.312Z,89.37
2018-12-24T17:02:31.983Z,89.57
2018-12-24T17:05:00.973Z,89.61
2018-12-24T17:07:29.664Z,89.49
2018-12-24T17:09:58.348Z,89.51
2018-12-24T17:12:27.352Z,89.76
2018-12-24T17:14:56.043Z,89.94
2018-12-24T17:17:24.790Z,90.41
2018-12-24T17:19:54.116Z,91.07
2018-12-24T17:22:22.807Z,91.68
2018-12-24T17:24:51.874Z,92.28
2018-12-24T17:27:20.580Z,92.02
2018-12-24T17:29:49.333Z,91.62
2018-12-24T17:32:18.389Z,90.76
2018-12-24T17:34:47.369Z,90.85
2018-12-24T17:37:16.063Z,91.10
2018-12-24T17:39:44.748Z,90.86
2018-12-24T17:42:13.425Z,91.08
2018-12-24T17:44:42.130Z,91.07
2018-12-24T17:47:16.237Z,91.05
2018-12-24T17:49:41.951Z,90.79
2018-12-24T17:52:10.662Z,90.23
2018-12-24T17:54:39.697Z,89.36
2018-12-24T17:57:08.383Z,90.40
2018-12-24T17:59:37.074Z,90.11
2018-12-24T18:02:06.064Z,90.04
2018-12-24T18:04:34.748Z,90.34
2018-12-24T18:07:03.530Z,89.79
2018-12-24T18:09:32.351Z,90.52
2018-12-24T18:12:01.035Z,89.76
2018-12-24T18:14:29.719Z,90.36
2018-12-24T18:16:58.792Z,89.90
2018-12-24T18:19:27.454Z,90.09
2018-12-24T18:21:56.141Z,89.50
2018-12-24T18:24:24.844Z,90.16
2018-12-24T18:26:53.536Z,91.79
2018-12-24T18:29:22.227Z,92.93
2018-12-24T18:31:51.523Z,93.28
2018-12-24T18:34:20.232Z,93.32
2018-12-24T18:36:48.915Z,93.46
2018-12-24T18:39:17.594Z,92.66
2018-12-24T18:41:46.574Z,92.06
2018-12-24T18:44:15.554Z,92.45
2018-12-24T18:46:44.557Z,93.32
2018-12-24T18:49:13.239Z,93.54
2018-12-24T18:51:42.226Z,93.57
2018-12-24T18:54:13.697Z,93.42
2018-12-24T18:56:42.379Z,94.14
2018-12-24T18:59:11.360Z,93.94
2018-12-24T19:01:40.407Z,93.67
2018-12-24T19:04:09.210Z,93.88
2018-12-24T19:06:38.302Z,94.54
2018-12-24T19:09:07.358Z,94.12
2018-12-24T19:11:36.115Z,94.32
2018-12-24T19:14:05.213Z,94.13
2018-12-24T19:16:33.930Z,93.92
2018-12-24T19:19:02.723Z,94.11
2018-12-24T19:21:31.681Z,94.33
2018-12-24T19:24:00.451Z,94.55
2018-12-24T19:26:29.405Z,93.85
2018-12-24T19:28:58.107Z,94.58
2018-12-24T19:31:26.773Z,94.76
2018-12-24T19:33:55.817Z,94.91
2018-12-24T19:36:24.503Z,94.34
2018-12-24T19:38:53.198Z,93.86
2018-12-24T19:41:21.911Z,94.32
2018-12-24T19:43:50.702Z,94.06
2018-12-24T19:46:19.465Z,94.76
2018-12-24T19:48:48.749Z,94.04
2018-12-24T19:51:17.812Z,92.85
2018-12-24T19:53:46.515Z,91.77
2018-12-24T19:56:15.623Z,93.22
2018-12-24T19:58:44.354Z,93.56
2018-12-24T20:01:13.048Z,94.16
2018-12-24T20:03:41.770Z,94.26
2018-12-24T20:06:10.460Z,93.75
2018-12-24T20:08:39.593Z,94.17
2018-12-24T20:11:08.636Z,93.92
2018-12-24T20:13:37.329Z,94.55
2018-12-24T20:16:06.013Z,93.97
2018-12-24T20:18:34.771Z,93.76
2018-12-24T20:21:03.465Z,92.91
2018-12-24T20:23:32.166Z,94.36
2018-12-24T20:26:01.183Z,94.54
2018-12-24T20:28:30.417Z,94.21
2018-12-24T20:30:59.185Z,94.42
2018-12-24T20:33:27.890Z,94.78
2018-12-24T20:35:57.372Z,94.84
2018-12-24T20:38:26.453Z,94.87
2018-12-24T20:40:55.475Z,95.07
2018-12-24T20:43:24.171Z,94.25
2018-12-24T20:45:52.867Z,94.46
2018-12-24T20:48:21.823Z,94.65
2018-12-24T20:50:50.534Z,94.76
2018-12-24T20:53:19.204Z,94.26
2018-12-24T20:55:47.892Z,94.05
2018-12-24T20:58:16.955Z,93.09
2018-12-24T21:00:45.645Z,95.10
2018-12-24T21:03:14.638Z,95.42
2018-12-24T21:05:43.342Z,95.89
2018-12-24T21:08:12.240Z,96.42
2018-12-24T21:10:40.936Z,96.42
2018-12-24T21:13:10.054Z,97.12
2018-12-24T21:15:38.751Z,97.52
2018-12-24T21:18:14.850Z,97.43
2018-12-24T21:20:37.864Z,97.76
2018-12-24T21:23:06.556Z,97.76
2018-12-24T21:25:35.333Z,97.59
2018-12-24T21:28:04.124Z,97.55
2018-12-24T21:30:32.824Z,97.57
2018-12-24T21:33:01.573Z,97.36
2018-12-24T21:35:30.372Z,97.45
2018-12-24T21:37:59.071Z,97.52
2018-12-24T21:40:27.755Z,97.32
2018-12-24T21:42:57.388Z,97.20
2018-12-24T21:45:26.268Z,97.08
2018-12-24T21:47:55.003Z,97.19
2018-12-24T21:50:23.700Z,97.28
2018-12-24T21:52:52.636Z,97.61
2018-12-24T21:55:21.437Z,97.16
2018-12-24T21:57:50.548Z,97.19
2018-12-24T22:00:19.417Z,97.38
2018-12-24T22:02:48.706Z,97.49
2018-12-24T22:05:18.325Z,97.27
2018-12-24T22:07:47.020Z,97.32
2018-12-24T22:10:15.715Z,97.43
2018-12-24T22:12:44.408Z,97.51
2018-12-24T22:15:13.169Z,97.52
2018-12-24T22:17:41.894Z,97.67
2018-12-24T22:20:10.657Z,97.81
2018-12-24T22:22:39.417Z,97.96
2018-12-24T22:25:08.454Z,97.66
2018-12-24T22:27:37.268Z,97.51
2018-12-24T22:30:06.258Z,97.57
2018-12-24T22:32:34.963Z,97.29
2018-12-24T22:35:03.658Z,97.19
2018-12-24T22:37:32.396Z,97.12
2018-12-24T22:40:01.123Z,97.12
2018-12-24T22:42:29.823Z,97.03
2018-12-24T22:44:58.513Z,97.08
2018-12-24T22:47:27.216Z,97.19
2018-12-24T22:49:55.920Z,97.14
2018-12-24T22:52:24.612Z,96.86
2018-12-24T22:54:53.327Z,97.00
2018-12-24T22:57:22.385Z,97.21
2018-12-24T22:59:51.184Z,97.21
2018-12-24T23:02:19.978Z,96.98
2018-12-24T23:04:48.668Z,97.25
2018-12-24T23:07:17.416Z,97.16
2018-12-24T23:09:46.719Z,97.23
2018-12-24T23:12:15.496Z,97.25
2018-12-24T23:14:44.184Z,97.26
2018-12-24T23:17:12.889Z,97.56
2018-12-24T23:19:41.609Z,97.68
2018-12-24T23:22:11.129Z,97.11
2018-12-24T23:24:40.460Z,97.11
2018-12-24T23:27:09.315Z,97.60
2018-12-24T23:29:38.009Z,97.00
2018-12-24T23:32:06.790Z,96.54
2018-12-24T23:34:35.406Z,96.06
2018-12-24T23:37:04.098Z,96.08
2018-12-24T23:39:32.781Z,95.67
2018-12-24T23:42:01.467Z,94.87
2018-12-24T23:44:30.543Z,93.73
2018-12-24T23:46:59.300Z,93.22
2018-12-24T23:49:27.991Z,93.37
2018-12-24T23:51:57.023Z,93.37
2018-12-24T23:54:25.713Z,93.18
2018-12-24T23:56:54.410Z,92.57
2018-12-24T23:59:23.367Z,92.18
